Bridgeport Valley, California Weather observations

Data are for 10 minute period ending at time listed.
 Day   Time   Solar   Ave.   Ave.  Ave.  Vector  Max.   Baro.   Total    
  of    of     Rad.   Air    Rel.  Wind   Wind   Wind  Press.  Precip.   
Year   Day            Temp.  Hum.  Speed  Dir.   Gust                    
2017   (PST)  Kw/m2    F      %     mph   deg.    mph    mb.     in.     
-------------------------------------------------------------------------
 145   16:30   0.51   62.7    29   14.5   262    25.1   793.3    0.00 
 145   16:40   0.48   62.1    29   14.2   261    20.8   793.3    0.00 
 145   16:50   0.44   61.9    30   14.3   257    22.7   793.4    0.00 
 145   17:00   0.41   61.5    29   15.8   256    22.7   793.4    0.00 
 145   17:10   0.37   61.6    29   11.0   272    22.1   793.5    0.00 
 145   17:20   0.33   60.7    31   15.0   257    22.4   793.6    0.00 
 145   17:30   0.30   60.1    33   14.8   253    22.1   793.6    0.00 
 145   17:40   0.26   59.7    32   15.1   254    21.9   793.6    0.00 
 145   17:50   0.23   59.2    32   14.2   257    20.7   793.7    0.00 
 145   18:00   0.20   58.7    32   13.5   261    20.8   793.7    0.00 
 145   18:10   0.16   58.0    33   14.7   262    21.4   793.8    0.00 
 145   18:20   0.14   57.4    33   14.0   263    21.0   793.9    0.00 
 145   18:30   0.11   57.2    31   15.1   260    25.9   794.0    0.00 
 145   18:40   0.07   56.5    31   12.8   268    18.5   794.2    0.00 
 145   18:50   0.02   54.4    35    9.9   276    18.2   794.2    0.00 
 145   19:00   0.01   55.1    30   12.6   265    20.0   794.2    0.00 
 145   19:10   0.01   53.9    34   10.5   284    20.5   794.3    0.00 
 145   19:20   0.00   52.8    38    8.2   299    16.0   794.4    0.00 
 145   19:30   0.00   52.3    40    8.1   288    13.2   794.6    0.00 
 145   19:40   0.00   50.2    48    6.9   295    11.1   794.7    0.00 
 145   19:50   0.00   51.1    42    5.0   298     9.0   794.8    0.00 
 145   20:00   0.00   50.5    40    4.8   307     9.8   795.0    0.00 
 145   20:10   0.00   48.7    43    4.2   136     7.6   795.1    0.00 
 145   20:20   0.00   50.2    36    1.5   156     5.2   795.2    0.00 
 145   20:30   0.00   50.9    34    1.7   100     3.4   795.2    0.00 
 145   20:40   0.00   50.4    33    1.4   287     3.9   795.3    0.00 
 145   20:50   0.00   51.7    31    4.4   347     6.1   795.4    0.00 
 145   21:00   0.00   47.4    42    4.3    31     5.7   795.5    0.00 
 145   21:10   0.00   40.2    61    4.7   154     6.7   795.6    0.00 
 145   21:20   0.00   37.5    70    4.3   141     5.8   795.6    0.00 
 145   21:30   0.00   35.9    74    4.0    80     5.4   795.6    0.00 
 145   21:40   0.00   36.3    69    2.9   126     5.6   795.7    0.00 
 145   21:50   0.00   38.5    59    4.9    89     6.1   795.7    0.00 
 145   22:00   0.00   37.3    61    4.6   129     6.4   795.7    0.00 
 145   22:10   0.00   39.2    53    3.6    65     5.5   795.8    0.00 
 145   22:20   0.00   38.1    58    2.5   178     7.2   795.8    0.00 
 145   22:30   0.00   38.1    58    2.4   141     4.9   795.8    0.00 
 145   22:40   0.00   37.4    61    2.0   192     3.8   795.8    0.00 
 145   22:50   0.00   35.9    66    2.6   182     4.7   795.9    0.00 
 145   23:00   0.00   33.9    69    4.3   144     6.2   795.8    0.00 
 145   23:10   0.00   32.6    74    2.2   188     4.7   795.9    0.00 
 145   23:20   0.00   31.9    78    2.3   228     5.0   795.9    0.00 
 145   23:30   0.00   31.5    78    2.9   216     5.3   796.0    0.00 
 145   23:40   0.00   32.9    74    2.1   212     4.3   796.0    0.00 
 145   23:50   0.00   34.3    66    1.6   175     5.2   796.0    0.00 
 146    0:00   0.00   32.5    72    3.2   205     5.8   795.9    0.00 
 146    0:10   0.00   32.3    69    3.2   177     4.9   796.0    0.00 
 146    0:20   0.00   32.5    69    2.9   198     6.2   796.1    0.00 
 146    0:30   0.00   32.5    65    4.4   161     6.0   796.1    0.00 
 146    0:40   0.00   31.1    69    3.6   174     5.6   796.1    0.00 
 146    0:50   0.00   30.8    69    4.1   175     6.1   796.1    0.00 
 146    1:00   0.00   30.2    68    4.5   163     5.8   796.0    0.00 
 146    1:10   0.00   29.1    71    3.8   171     4.7   796.0    0.00 
 146    1:20   0.00   28.6    74    1.9   171     4.3   796.0    0.00 
 146    1:30   0.00   29.1    75    1.9   220     3.9   796.1    0.00 
 146    1:40   0.00   29.8    67    3.5   172     4.5   796.1    0.00 
 146    1:50   0.00   28.8    70    4.0   151     5.1   796.2    0.00 
 146    2:00   0.00   27.7    71    3.2   172     4.4   796.2    0.00 
 146    2:10   0.00   27.9    70    3.0   191     4.9   796.2    0.00 
 146    2:20   0.00   28.2    73    2.4   212     5.1   796.3    0.00 
 146    2:30   0.00   29.0    66    2.7   209     4.4   796.3    0.00 
 146    2:40   0.00   29.2    67    3.0   220     5.0   796.4    0.00 
 146    2:50   0.00   28.8    66    2.2   205     3.1   796.5    0.00 
 146    3:00   0.00   28.4    66    2.2   163     3.1   796.5    0.00 
 146    3:10   0.00   26.8    71    2.9   187     4.8   796.6    0.00 
 146    3:20   0.00   26.1    74    0.8   116     2.1   796.7    0.00 
 146    3:30   0.00   28.2    69    2.2   214     4.2   796.7    0.00 
 146    3:40   0.00   27.3    68    3.3   203     5.3   796.8    0.00 
 146    3:50   0.00   26.4    71    4.1   187     5.8   796.9    0.00 
 146    4:00   0.00   25.1    82    2.5   190     3.4   797.0    0.00 
 146    4:10   0.00   24.3    86    3.1   185     5.3   797.1    0.00 
 146    4:20   0.00   26.2    67    4.6   157     6.6   797.1    0.00 
 146    4:30   0.00   25.0    78    2.6   227     3.7   797.2    0.00 
 146    4:40   0.01   24.8    82    3.1   211     5.0   797.3    0.00 
 146    4:50   0.01   25.7    72    3.3   178     4.6   797.3    0.00 
 146    5:00   0.03   27.0    64    1.6    99     2.3   797.3    0.00 
 146    5:10   0.06   28.9    66    0.0     0     0.0   797.4    0.00 
 146    5:20   0.09   29.8    62    1.0   152     2.8   797.6    0.00 
 146    5:30   0.11   31.3    65    0.2   147     1.2   797.8    0.00 
 146    5:40   0.14   32.2    64    2.7   208     4.8   797.7    0.00 
 146    5:50   0.17   31.8    69    4.0   178     6.1   797.7    0.00 
 146    6:00   0.20   32.1    76    4.3   191     6.3   797.9    0.00 
 146    6:10   0.24   33.0    72    3.9   200     5.7   797.8    0.00 
 146    6:20   0.27   35.5    65    2.3   178     3.9   797.9    0.00 
 146    6:30   0.31   37.7    56    2.7   170     3.7   797.9    0.00 
 146    6:40   0.34   40.1    51    2.0    95     3.5   798.0    0.00 
 146    6:50   0.38   42.6    43    1.7    98     2.9   798.1    0.00 
 146    7:00   0.42   45.3    40    0.4    84     2.3   798.2    0.00 
 146    7:10   0.45   47.2    36    1.0    46     2.7   798.4    0.00 
 146    7:20   0.49   48.7    36    0.8    41     2.3   798.5    0.00 
 146    7:30   0.52   49.8    36    1.1    26     2.9   798.6    0.00 
 146    7:40   0.56   51.3    34    0.5   251     2.6   798.6    0.00 
 146    7:50   0.59   52.6    31    1.2   236     3.4   798.7    0.00 
 146    8:00   0.63   51.9    32    1.2   282     3.3   798.6    0.00 
 146    8:10   0.66   53.1    32    1.5   323     4.2   798.6    0.00 
 146    8:20   0.69   52.3    36    2.2   288     5.0   798.7    0.00 
 146    8:30   0.72   53.9    35    1.1   306     4.1   798.8    0.00 
 146    8:40   0.76   54.2    35    2.0   253     4.5   798.7    0.00 
 146    8:50   0.78   55.3    35    1.4   239     2.9   798.8    0.00 
 146    9:00   0.81   55.4    34    2.5   305     5.1   798.8    0.00 
 146    9:10   0.84   55.1    31    2.4   297     5.3   798.7    0.00 
 146    9:20   0.87   56.5    32    1.6   310     3.4   798.6    0.00 
 146    9:30   0.89   57.2    29    1.8   325     4.7   798.6    0.00 
 146    9:40   0.92   57.6    26    2.0    17     4.3   798.5    0.00 
 146    9:50   0.94   58.8    26    2.1   131     4.8   798.5    0.00 
 146   10:00   0.96   58.2    27    2.4   192     5.1   798.5    0.00 
 146   10:10   0.98   58.9    24    2.3    88     5.7   798.5    0.00 
 146   10:20   0.99   59.5    24    1.6   166     5.8   798.5    0.00 
 146   10:30   1.01   60.3    23    2.1    12     4.8   798.5    0.00 
 146   10:40   1.02   60.6    25    1.6   309     4.5   798.5    0.00 
 146   10:50   1.03   60.9    27    3.2    36     7.0   798.4    0.00 
 146   11:00   1.04   61.2    27    2.9    58     5.3   798.3    0.00 
 146   11:10   1.05   61.5    27    4.4   352     7.5   798.3    0.00 
 146   11:20   1.06   62.2    27    4.1   356     7.9   798.3    0.00 
 146   11:30   1.06   62.3    23    4.3    29     8.6   798.3    0.00 
 146   11:40   1.07   63.4    25    3.3    49     7.0   798.3    0.00 
 146   11:50   1.07   63.2    23    5.2     9     9.4   798.2    0.00 
 146   12:00   1.07   63.3    22    3.7   287     7.5   798.2    0.00 
 146   12:10   1.07   63.8    24    4.6   333     8.4   798.2    0.00 
 146   12:20   1.07   64.5    24    3.9   347     7.5   798.2    0.00 
 146   12:30   1.06   64.9    22    3.1   358     6.6   798.2    0.00 
 146   12:40   1.05   64.8    22    3.5    28     7.6   798.2    0.00 
 146   12:50   1.04   65.1    23    2.8    53     6.7   798.1    0.00 
 146   13:00   1.03   65.5    26    4.5    94     9.2   798.1    0.00 
 146   13:10   1.02   65.7    27    4.1    47     9.4   798.1    0.00 
 146   13:20   1.00   65.8    26    4.0    42     6.6   798.1    0.00 
 146   13:30   0.99   66.1    23    4.3   355     8.0   798.1    0.00 
 146   13:40   0.97   66.5    21    3.0   274     8.0   798.0    0.00 
 146   13:50   0.96   67.5    24    3.2   279     7.1   798.0    0.00 
 146   14:00   0.94   67.2    26    3.3   286     6.2   798.0    0.00 
 146   14:10   0.91   67.0    22    3.4     1     6.1   798.0    0.00 
 146   14:20   0.89   67.3    23    2.2    57     5.6   798.0    0.00 
 146   14:30   0.87   67.5    23    3.0   239     5.3   798.0    0.00 
 146   14:40   0.84   67.7    23    3.7   261     8.6   798.0    0.00 
 146   14:50   0.81   67.2    24    3.5   265     8.1   798.0    0.00 
 146   15:00   0.79   67.2    24    5.1   318    11.9   798.1    0.00 
 146   15:10   0.76   67.4    24    3.9   338     8.8   798.1    0.00 
 146   15:20   0.73   67.3    24    3.6   300     6.2   798.1    0.00 
 146   15:30   0.70   67.7    26    4.4   343     8.9   798.1    0.00 
 146   15:40   0.67   67.0    26    4.4    26     9.7   798.1    0.00 
 146   15:50   0.64   67.0    28    5.7     4    12.1   798.1    0.00 
 146   16:00   0.60   66.5    28    8.0    31    11.7   798.1    0.00 
 146   16:10   0.57   66.8    25    3.5    36     8.5   798.2    0.00 
 146   16:20   0.54   66.5    29    6.9     2     9.3   798.3    0.00 

Return to Bridgeport Valley graphs page.


Western Regional Climate Center,wrcc@dri.edu